sensor_id;sensor_type;location;lat;lon;timestamp;pressure;altitude;pressure_sealevel;temperature;humidity
69749;BME280;57019;52.354;6.584;2022-09-17T00:00:47;101074.25;;;20.68;46.27
69749;BME280;57019;52.354;6.584;2022-09-17T00:03:13;101082.28;;;20.66;45.87
69749;BME280;57019;52.354;6.584;2022-09-17T00:05:39;101080.47;;;20.67;46.07
69749;BME280;57019;52.354;6.584;2022-09-17T00:08:06;101075.41;;;20.65;45.90
69749;BME280;57019;52.354;6.584;2022-09-17T00:10:32;101076.19;;;20.66;45.81
69749;BME280;57019;52.354;6.584;2022-09-17T00:13:01;101080.81;;;20.64;46.13
69749;BME280;57019;52.354;6.584;2022-09-17T00:15:26;101081.81;;;20.63;45.65
69749;BME280;57019;52.354;6.584;2022-09-17T00:17:56;101078.22;;;20.64;46.05
69749;BME280;57019;52.354;6.584;2022-09-17T00:20:25;101085.44;;;20.62;45.96
69749;BME280;57019;52.354;6.584;2022-09-17T00:22:52;101083.81;;;20.61;46.08
69749;BME280;57019;52.354;6.584;2022-09-17T00:25:18;101088.22;;;20.60;45.76
69749;BME280;57019;52.354;6.584;2022-09-17T00:27:44;101082.19;;;20.60;46.04
69749;BME280;57019;52.354;6.584;2022-09-17T00:30:10;101091.03;;;20.59;45.91
69749;BME280;57019;52.354;6.584;2022-09-17T00:32:35;101099.88;;;20.58;45.83
69749;BME280;57019;52.354;6.584;2022-09-17T00:35:01;101094.66;;;20.58;46.01
69749;BME280;57019;52.354;6.584;2022-09-17T00:37:26;101099.88;;;20.58;45.87
69749;BME280;57019;52.354;6.584;2022-09-17T00:39:51;101096.66;;;20.56;45.81
69749;BME280;57019;52.354;6.584;2022-09-17T00:42:18;101096.66;;;20.56;45.87
69749;BME280;57019;52.354;6.584;2022-09-17T00:47:33;101104.69;;;20.54;45.97
69749;BME280;57019;52.354;6.584;2022-09-17T00:50:18;101099.63;;;20.53;45.78
69749;BME280;57019;52.354;6.584;2022-09-17T00:52:58;101103.06;;;20.53;45.80
69749;BME280;57019;52.354;6.584;2022-09-17T00:55:31;101112.75;;;20.53;45.62
69749;BME280;57019;52.354;6.584;2022-09-17T00:58:00;101107.50;;;20.53;45.63
69749;BME280;57019;52.354;6.584;2022-09-17T01:00:28;101098.00;;;20.51;45.73
69749;BME280;57019;52.354;6.584;2022-09-17T01:02:54;101095.38;;;20.51;45.76
69749;BME280;57019;52.354;6.584;2022-09-17T01:05:48;101106.84;;;20.50;45.99
69749;BME280;57019;52.354;6.584;2022-09-17T01:11:11;101111.47;;;20.48;45.77
69749;BME280;57019;52.354;6.584;2022-09-17T01:16:19;101116.72;;;20.48;45.67
69749;BME280;57019;52.354;6.584;2022-09-17T01:21:51;101113.44;;;20.46;45.76
69749;BME280;57019;52.354;6.584;2022-09-17T01:35:08;101118.22;;;20.43;45.82
69749;BME280;57019;52.354;6.584;2022-09-17T01:40:29;101125.47;;;20.41;45.72
69749;BME280;57019;52.354;6.584;2022-09-17T01:43:08;101125.47;;;20.41;45.79
69749;BME280;57019;52.354;6.584;2022-09-17T01:45:39;101126.44;;;20.40;45.85
69749;BME280;57019;52.354;6.584;2022-09-17T01:48:12;101126.63;;;20.38;45.58
69749;BME280;57019;52.354;6.584;2022-09-17T01:53:34;101128.44;;;20.38;45.80
69749;BME280;57019;52.354;6.584;2022-09-17T01:56:03;101133.88;;;20.36;45.43
69749;BME280;57019;52.354;6.584;2022-09-17T01:58:36;101128.63;;;20.36;45.82
69749;BME280;57019;52.354;6.584;2022-09-17T02:01:05;101124.38;;;20.35;45.62
69749;BME280;57019;52.354;6.584;2022-09-17T02:03:39;101134.03;;;20.34;45.59
69749;BME280;57019;52.354;6.584;2022-09-17T02:06:22;101142.72;;;20.35;45.38
69749;BME280;57019;52.354;6.584;2022-09-17T02:09:17;101134.03;;;20.34;45.42
69749;BME280;57019;52.354;6.584;2022-09-17T02:11:43;101135.84;;;20.34;45.62
69749;BME280;57019;52.354;6.584;2022-09-17T02:14:45;101134.19;;;20.33;45.45
69749;BME280;57019;52.354;6.584;2022-09-17T02:17:38;101131.56;;;20.33;45.67
69749;BME280;57019;52.354;6.584;2022-09-17T02:20:03;101125.69;;;20.31;45.27
69749;BME280;57019;52.354;6.584;2022-09-17T02:22:36;101140.59;;;20.30;45.60
69749;BME280;57019;52.354;6.584;2022-09-17T02:30:14;101138.34;;;20.27;45.40
69749;BME280;57019;52.354;6.584;2022-09-17T02:32:40;101147.03;;;20.28;45.67
69749;BME280;57019;52.354;6.584;2022-09-17T02:35:07;101141.78;;;20.28;45.42
69749;BME280;57019;52.354;6.584;2022-09-17T02:37:33;101148.03;;;20.27;45.28
69749;BME280;57019;52.354;6.584;2022-09-17T02:39:58;101154.25;;;20.26;45.27
69749;BME280;57019;52.354;6.584;2022-09-17T02:45:37;101154.25;;;20.26;45.16
69749;BME280;57019;52.354;6.584;2022-09-17T02:51:06;101146.56;;;20.24;45.26
69749;BME280;57019;52.354;6.584;2022-09-17T02:56:51;101152.97;;;20.22;45.33
69749;BME280;57019;52.354;6.584;2022-09-17T02:59:25;101154.78;;;20.21;45.40
69749;BME280;57019;52.354;6.584;2022-09-17T03:02:11;101152.16;;;20.21;45.05
69749;BME280;57019;52.354;6.584;2022-09-17T03:04:41;101152.34;;;20.20;45.26
69749;BME280;57019;52.354;6.584;2022-09-17T03:07:08;101156.56;;;20.21;45.47
69749;BME280;57019;52.354;6.584;2022-09-17T03:09:36;101152.34;;;20.20;45.30
69749;BME280;57019;52.354;6.584;2022-09-17T03:12:01;101154.97;;;20.20;45.36
69749;BME280;57019;52.354;6.584;2022-09-17T03:14:27;101153.31;;;20.19;45.14
69749;BME280;57019;52.354;6.584;2022-09-17T03:16:52;101143.81;;;20.17;45.38
69749;BME280;57019;52.354;6.584;2022-09-17T03:19:17;101146.44;;;20.17;45.13
69749;BME280;57019;52.354;6.584;2022-09-17T03:21:42;101145.63;;;20.17;45.27
69749;BME280;57019;52.354;6.584;2022-09-17T03:24:08;101146.63;;;20.16;45.20
69749;BME280;57019;52.354;6.584;2022-09-17T03:26:35;101144.81;;;20.16;45.10
69749;BME280;57019;52.354;6.584;2022-09-17T03:29:01;101149.25;;;20.16;45.19
69749;BME280;57019;52.354;6.584;2022-09-17T03:31:26;101146.78;;;20.14;45.04
69749;BME280;57019;52.354;6.584;2022-09-17T03:33:53;101152.84;;;20.15;45.40
69749;BME280;57019;52.354;6.584;2022-09-17T03:36:19;101150.41;;;20.13;45.18
69749;BME280;57019;52.354;6.584;2022-09-17T03:38:44;101165.31;;;20.13;45.30
69749;BME280;57019;52.354;6.584;2022-09-17T03:41:09;101165.31;;;20.13;45.44
69749;BME280;57019;52.354;6.584;2022-09-17T03:43:35;101166.94;;;20.14;45.15
69749;BME280;57019;52.354;6.584;2022-09-17T03:46:01;101164.50;;;20.12;45.02
69749;BME280;57019;52.354;6.584;2022-09-17T03:48:26;101167.28;;;20.11;45.18
69749;BME280;57019;52.354;6.584;2022-09-17T03:50:53;101162.03;;;20.11;45.01
69749;BME280;57019;52.354;6.584;2022-09-17T03:53:19;101165.66;;;20.10;45.34
69749;BME280;57019;52.354;6.584;2022-09-17T03:55:44;101146.50;;;20.09;45.20
69749;BME280;57019;52.354;6.584;2022-09-17T03:58:09;101156.19;;;20.09;45.45
69749;BME280;57019;52.354;6.584;2022-09-17T04:00:34;101156.19;;;20.09;45.14
69749;BME280;57019;52.354;6.584;2022-09-17T04:03:03;101160.59;;;20.08;45.22
69749;BME280;57019;52.354;6.584;2022-09-17T04:05:29;101154.53;;;20.08;45.14
69749;BME280;57019;52.354;6.584;2022-09-17T04:07:54;101159.97;;;20.06;44.89
69749;BME280;57019;52.354;6.584;2022-09-17T04:10:20;101160.75;;;20.07;45.15
69749;BME280;57019;52.354;6.584;2022-09-17T04:12:45;101165.19;;;20.06;45.36
69749;BME280;57019;52.354;6.584;2022-09-17T04:15:10;101173.25;;;20.05;45.17
69749;BME280;57019;52.354;6.584;2022-09-17T04:17:35;101178.47;;;20.05;45.21
69749;BME280;57019;52.354;6.584;2022-09-17T04:20:02;101177.66;;;20.04;45.08
69749;BME280;57019;52.354;6.584;2022-09-17T04:22:28;101175.84;;;20.05;45.29
69749;BME280;57019;52.354;6.584;2022-09-17T04:24:54;101175.03;;;20.04;45.24
69749;BME280;57019;52.354;6.584;2022-09-17T04:27:19;101173.41;;;20.03;45.43
69749;BME280;57019;52.354;6.584;2022-09-17T04:29:44;101176.03;;;20.03;45.29
69749;BME280;57019;52.354;6.584;2022-09-17T04:32:10;101168.31;;;20.02;45.24
69749;BME280;57019;52.354;6.584;2022-09-17T04:34:35;101168.31;;;20.02;45.25
69749;BME280;57019;52.354;6.584;2022-09-17T04:37:01;101179.63;;;20.02;45.27
69749;BME280;57019;52.354;6.584;2022-09-17T04:39:26;101171.13;;;20.00;45.06
69749;BME280;57019;52.354;6.584;2022-09-17T04:41:51;101178.97;;;20.00;45.32
69749;BME280;57019;52.354;6.584;2022-09-17T04:44:17;101183.25;;;20.01;45.22
69749;BME280;57019;52.354;6.584;2022-09-17T04:46:42;101185.22;;;19.99;45.41
69749;BME280;57019;52.354;6.584;2022-09-17T04:49:07;101185.22;;;19.99;45.30
69749;BME280;57019;52.354;6.584;2022-09-17T04:51:33;101180.00;;;19.99;45.09
69749;BME280;57019;52.354;6.584;2022-09-17T04:53:58;101186.22;;;19.98;44.98
69749;BME280;57019;52.354;6.584;2022-09-17T04:56:23;101182.75;;;19.97;45.16
69749;BME280;57019;52.354;6.584;2022-09-17T04:58:49;101180.31;;;19.96;45.21
69749;BME280;57019;52.354;6.584;2022-09-17T05:01:14;101182.94;;;19.96;45.24
69749;BME280;57019;52.354;6.584;2022-09-17T05:03:42;101186.56;;;19.95;45.04
69749;BME280;57019;52.354;6.584;2022-09-17T05:06:08;101177.06;;;19.94;45.02
69749;BME280;57019;52.354;6.584;2022-09-17T05:08:33;101177.06;;;19.94;45.11
69749;BME280;57019;52.354;6.584;2022-09-17T05:10:59;101188.34;;;19.94;45.20
69749;BME280;57019;52.354;6.584;2022-09-17T05:13:24;101180.66;;;19.93;45.14
69749;BME280;57019;52.354;6.584;2022-09-17T05:15:49;101185.91;;;19.93;45.26
69749;BME280;57019;52.354;6.584;2022-09-17T05:18:15;101195.59;;;19.92;45.34
69749;BME280;57019;52.354;6.584;2022-09-17T05:20:41;101198.22;;;19.92;45.15
69749;BME280;57019;52.354;6.584;2022-09-17T05:23:07;101195.59;;;19.92;45.18
69749;BME280;57019;52.354;6.584;2022-09-17T05:25:32;101196.56;;;19.91;45.15
69749;BME280;57019;52.354;6.584;2022-09-17T05:27:57;101201.00;;;19.91;45.33
69749;BME280;57019;52.354;6.584;2022-09-17T05:30:25;101207.22;;;19.90;45.29
69749;BME280;57019;52.354;6.584;2022-09-17T05:32:57;101216.88;;;19.89;45.32
69749;BME280;57019;52.354;6.584;2022-09-17T05:35:23;101216.06;;;19.89;45.33
69749;BME280;57019;52.354;6.584;2022-09-17T05:37:48;101213.44;;;19.89;45.08
69749;BME280;57019;52.354;6.584;2022-09-17T05:40:13;101220.50;;;19.88;45.26
69749;BME280;57019;52.354;6.584;2022-09-17T05:42:39;101221.31;;;19.89;45.33
69749;BME280;57019;52.354;6.584;2022-09-17T05:45:05;101209.19;;;19.88;45.06
69749;BME280;57019;52.354;6.584;2022-09-17T05:47:30;101218.84;;;19.87;44.95
69749;BME280;57019;52.354;6.584;2022-09-17T05:49:56;101215.09;;;19.90;45.05
69749;BME280;57019;52.354;6.584;2022-09-17T05:52:21;101213.75;;;19.94;45.31
69749;BME280;57019;52.354;6.584;2022-09-17T05:54:46;101213.38;;;20.05;44.95
69749;BME280;57019;52.354;6.584;2022-09-17T05:57:12;101221.50;;;20.19;45.03
69749;BME280;57019;52.354;6.584;2022-09-17T05:59:39;101227.31;;;20.29;44.34
69749;BME280;57019;52.354;6.584;2022-09-17T06:02:05;101230.72;;;20.38;44.51
69749;BME280;57019;52.354;6.584;2022-09-17T06:04:30;101229.22;;;20.43;44.13
69749;BME280;57019;52.354;6.584;2022-09-17T06:06:55;101235.75;;;20.47;44.16
69749;BME280;57019;52.354;6.584;2022-09-17T06:09:21;101231.13;;;20.49;44.24
69749;BME280;57019;52.354;6.584;2022-09-17T06:11:46;101234.56;;;20.50;44.21
69749;BME280;57019;52.354;6.584;2022-09-17T06:14:11;101234.41;;;20.51;44.15
69749;BME280;57019;52.354;6.584;2022-09-17T06:16:37;101236.38;;;20.49;44.66
69749;BME280;57019;52.354;6.584;2022-09-17T06:19:02;101233.75;;;20.49;43.98
69749;BME280;57019;52.354;6.584;2022-09-17T06:21:28;101240.63;;;20.50;44.38
69749;BME280;57019;52.354;6.584;2022-09-17T06:23:54;101239.00;;;20.49;44.01
69749;BME280;57019;52.354;6.584;2022-09-17T06:26:19;101242.63;;;20.48;44.15
69749;BME280;57019;52.354;6.584;2022-09-17T06:28:45;101240.00;;;20.48;44.02
69749;BME280;57019;52.354;6.584;2022-09-17T06:31:11;101242.63;;;20.48;44.12
69749;BME280;57019;52.354;6.584;2022-09-17T06:33:37;101242.44;;;20.50;44.25
69749;BME280;57019;52.354;6.584;2022-09-17T06:36:05;101247.50;;;20.51;44.34
69749;BME280;57019;52.354;6.584;2022-09-17T06:38:32;101238.66;;;20.53;43.98
69749;BME280;57019;52.354;6.584;2022-09-17T06:40:58;101245.53;;;20.54;44.05
69749;BME280;57019;52.354;6.584;2022-09-17T06:43:23;101239.28;;;20.55;43.67
69749;BME280;57019;52.354;6.584;2022-09-17T06:48:18;101253.22;;;20.55;44.12
69749;BME280;57019;52.354;6.584;2022-09-17T06:50:43;101253.06;;;20.57;44.28
69749;BME280;57019;52.354;6.584;2022-09-17T06:53:08;101251.72;;;20.61;44.00
69749;BME280;57019;52.354;6.584;2022-09-17T06:55:34;101254.00;;;20.64;44.32
69749;BME280;57019;52.354;6.584;2022-09-17T06:57:59;101253.00;;;20.65;44.33
69749;BME280;57019;52.354;6.584;2022-09-17T07:00:25;101254.78;;;20.64;44.16
69749;BME280;57019;52.354;6.584;2022-09-17T07:02:59;101252.34;;;20.63;44.30
69749;BME280;57019;52.354;6.584;2022-09-17T07:05:25;101248.09;;;20.62;44.19
69749;BME280;57019;52.354;6.584;2022-09-17T07:07:51;101249.72;;;20.63;44.13
69749;BME280;57019;52.354;6.584;2022-09-17T07:10:16;101255.78;;;20.63;44.45
69749;BME280;57019;52.354;6.584;2022-09-17T07:12:42;101251.38;;;20.64;44.51
69749;BME280;57019;52.354;6.584;2022-09-17T07:15:08;101249.72;;;20.63;44.38
69749;BME280;57019;52.354;6.584;2022-09-17T07:17:36;101245.44;;;20.70;44.47
69749;BME280;57019;52.354;6.584;2022-09-17T07:20:02;101250.22;;;20.66;44.42
69749;BME280;57019;52.354;6.584;2022-09-17T07:22:27;101241.31;;;20.67;44.61
69749;BME280;57019;52.354;6.584;2022-09-17T07:24:53;101245.75;;;20.67;44.68
69749;BME280;57019;52.354;6.584;2022-09-17T07:27:18;101253.81;;;20.65;44.40
69749;BME280;57019;52.354;6.584;2022-09-17T07:29:43;101249.06;;;20.69;44.53
69749;BME280;57019;52.354;6.584;2022-09-17T07:32:08;101251.81;;;20.67;44.42
69749;BME280;57019;52.354;6.584;2022-09-17T07:34:34;101261.34;;;20.68;44.52
69749;BME280;57019;52.354;6.584;2022-09-17T07:36:59;101249.72;;;20.63;44.66
69749;BME280;57019;52.354;6.584;2022-09-17T07:39:24;101253.34;;;20.62;44.57
69749;BME280;57019;52.354;6.584;2022-09-17T07:41:50;101253.34;;;20.62;44.93
69749;BME280;57019;52.354;6.584;2022-09-17T07:44:15;101257.59;;;20.63;44.63
69749;BME280;57019;52.354;6.584;2022-09-17T07:46:40;101241.69;;;20.64;44.70
69749;BME280;57019;52.354;6.584;2022-09-17T07:49:06;101252.16;;;20.64;44.86
69749;BME280;57019;52.354;6.584;2022-09-17T07:51:31;101252.69;;;20.68;44.94
69749;BME280;57019;52.354;6.584;2022-09-17T07:53:58;101256.25;;;20.67;44.99
69749;BME280;57019;52.354;6.584;2022-09-17T07:56:24;101261.50;;;20.67;45.04
69749;BME280;57019;52.354;6.584;2022-09-17T07:58:50;101263.81;;;20.70;45.02
69749;BME280;57019;52.354;6.584;2022-09-17T08:01:16;101262.19;;;20.69;45.12
69749;BME280;57019;52.354;6.584;2022-09-17T08:03:46;101257.94;;;20.68;45.25
69749;BME280;57019;52.354;6.584;2022-09-17T08:06:14;101268.72;;;20.73;45.17
69749;BME280;57019;52.354;6.584;2022-09-17T08:08:40;101259.22;;;20.72;45.12
69749;BME280;57019;52.354;6.584;2022-09-17T08:11:09;101255.59;;;20.73;45.22
69749;BME280;57019;52.354;6.584;2022-09-17T08:13:35;101259.03;;;20.74;45.25
69749;BME280;57019;52.354;6.584;2022-09-17T08:16:08;101257.16;;;20.82;45.71
69749;BME280;57019;52.354;6.584;2022-09-17T08:18:42;101261.16;;;20.93;45.40
69749;BME280;57019;52.354;6.584;2022-09-17T08:21:09;101252.78;;;20.98;45.22
69749;BME280;57019;52.354;6.584;2022-09-17T08:27:03;101263.28;;;20.98;45.02
69749;BME280;57019;52.354;6.584;2022-09-17T08:29:28;101255.03;;;21.01;44.92
69749;BME280;57019;52.354;6.584;2022-09-17T08:31:53;101257.38;;;20.96;45.12
69749;BME280;57019;52.354;6.584;2022-09-17T08:34:19;101256.91;;;20.92;45.01
69749;BME280;57019;52.354;6.584;2022-09-17T08:36:44;101255.22;;;20.99;44.82
69749;BME280;57019;52.354;6.584;2022-09-17T08:39:10;101254.06;;;21.02;44.53
69749;BME280;57019;52.354;6.584;2022-09-17T08:46:32;101265.84;;;21.06;44.27
69749;BME280;57019;52.354;6.584;2022-09-17T08:49:10;101269.09;;;21.08;44.16
69749;BME280;57019;52.354;6.584;2022-09-17T08:51:47;101292.53;;;21.10;44.55
69749;BME280;57019;52.354;6.584;2022-09-17T08:54:31;101279.13;;;21.05;44.39
69749;BME280;57019;52.354;6.584;2022-09-17T08:59:48;101281.75;;;21.05;44.45
69749;BME280;57019;52.354;6.584;2022-09-17T09:02:36;101276.78;;;21.10;44.64
69749;BME280;57019;52.354;6.584;2022-09-17T09:05:08;101279.41;;;21.10;44.69
69749;BME280;57019;52.354;6.584;2022-09-17T09:07:42;101277.25;;;21.13;44.61
69749;BME280;57019;52.354;6.584;2022-09-17T09:10:14;101278.31;;;21.04;44.61
69749;BME280;57019;52.354;6.584;2022-09-17T09:12:42;101273.66;;;20.91;44.67
69749;BME280;57019;52.354;6.584;2022-09-17T09:15:22;101281.13;;;20.79;45.01
69749;BME280;57019;52.354;6.584;2022-09-17T09:17:51;101277.88;;;20.77;45.09
69749;BME280;57019;52.354;6.584;2022-09-17T09:20:24;101274.97;;;20.72;45.22
69749;BME280;57019;52.354;6.584;2022-09-17T09:22:54;101290.47;;;20.82;46.03
69749;BME280;57019;52.354;6.584;2022-09-17T09:25:21;101282.16;;;20.93;45.69
69749;BME280;57019;52.354;6.584;2022-09-17T09:31:04;101283.19;;;21.07;45.30
69749;BME280;57019;52.354;6.584;2022-09-17T09:33:35;101281.53;;;21.14;44.89
69749;BME280;57019;52.354;6.584;2022-09-17T09:36:07;101282.94;;;21.17;44.95
69749;BME280;57019;52.354;6.584;2022-09-17T09:38:58;101278.34;;;21.19;45.00
69749;BME280;57019;52.354;6.584;2022-09-17T09:41:42;101288.00;;;21.04;44.69
69749;BME280;57019;52.354;6.584;2022-09-17T09:44:13;101274.28;;;20.93;45.00
69749;BME280;57019;52.354;6.584;2022-09-17T09:57:47;101307.72;;;20.76;44.61
69749;BME280;57019;52.354;6.584;2022-09-17T10:05:33;101313.34;;;20.73;44.25
69749;BME280;57019;52.354;6.584;2022-09-17T10:07:59;101303.81;;;20.72;44.31
69749;BME280;57019;52.354;6.584;2022-09-17T10:10:24;101299.19;;;20.74;44.45
69749;BME280;57019;52.354;6.584;2022-09-17T10:13:04;101301.19;;;20.72;43.85
69749;BME280;57019;52.354;6.584;2022-09-17T10:15:29;101290.34;;;20.75;44.17
69749;BME280;57019;52.354;6.584;2022-09-17T10:18:18;101287.41;;;20.70;44.37
69749;BME280;57019;52.354;6.584;2022-09-17T10:20:53;101284.16;;;20.68;44.44
69749;BME280;57019;52.354;6.584;2022-09-17T10:23:19;101281.19;;;20.71;44.03
69749;BME280;57019;52.354;6.584;2022-09-17T10:25:46;101276.91;;;20.70;44.09
69749;BME280;57019;52.354;6.584;2022-09-17T10:28:46;101287.09;;;20.73;44.22
69749;BME280;57019;52.354;6.584;2022-09-17T10:31:13;101274.81;;;20.65;44.31
69749;BME280;57019;52.354;6.584;2022-09-17T10:33:50;101272.81;;;20.67;44.49
69749;BME280;57019;52.354;6.584;2022-09-17T10:36:16;101260.69;;;20.66;44.21
69749;BME280;57019;52.354;6.584;2022-09-17T10:39:17;101270.06;;;20.69;44.38
69749;BME280;57019;52.354;6.584;2022-09-17T10:44:23;101264.03;;;20.83;44.41
69749;BME280;57019;52.354;6.584;2022-09-17T10:46:50;101263.00;;;20.93;44.50
69749;BME280;57019;52.354;6.584;2022-09-17T10:49:38;101268.88;;;20.95;44.62
69749;BME280;57019;52.354;6.584;2022-09-17T10:52:05;101243.63;;;20.94;44.51
69749;BME280;57019;52.354;6.584;2022-09-17T10:57:00;101241.00;;;20.94;44.58
69749;BME280;57019;52.354;6.584;2022-09-17T11:02:25;101239.22;;;21.09;44.74
69749;BME280;57019;52.354;6.584;2022-09-17T11:10:46;101237.75;;;21.07;44.57
69749;BME280;57019;52.354;6.584;2022-09-17T11:13:38;101241.19;;;21.07;44.40
69749;BME280;57019;52.354;6.584;2022-09-17T11:22:31;101240.22;;;21.23;44.50
69749;BME280;57019;52.354;6.584;2022-09-17T11:27:53;101246.94;;;21.26;44.58
69749;BME280;57019;52.354;6.584;2022-09-17T11:30:23;101251.38;;;21.25;44.76
69749;BME280;57019;52.354;6.584;2022-09-17T11:33:11;101253.84;;;21.27;44.65
69749;BME280;57019;52.354;6.584;2022-09-17T11:35:46;101251.66;;;21.30;44.88
69749;BME280;57019;52.354;6.584;2022-09-17T11:38:19;101236.34;;;21.34;44.75
69749;BME280;57019;52.354;6.584;2022-09-17T11:40:51;101231.09;;;21.34;44.83
69749;BME280;57019;52.354;6.584;2022-09-17T11:43:26;101232.38;;;21.38;44.76
69749;BME280;57019;52.354;6.584;2022-09-17T11:49:08;101232.47;;;21.45;45.01
69749;BME280;57019;52.354;6.584;2022-09-17T11:51:39;101240.16;;;21.46;44.46
69749;BME280;57019;52.354;6.584;2022-09-17T11:54:22;101259.19;;;21.48;44.50
69749;BME280;57019;52.354;6.584;2022-09-17T11:57:16;101254.28;;;21.45;44.30
69749;BME280;57019;52.354;6.584;2022-09-17T12:00:13;101256.38;;;21.50;44.20
69749;BME280;57019;52.354;6.584;2022-09-17T12:05:21;101242.09;;;21.52;44.19
69749;BME280;57019;52.354;6.584;2022-09-17T12:15:37;101237.75;;;21.60;44.18
69749;BME280;57019;52.354;6.584;2022-09-17T12:21:07;101253.97;;;21.63;44.23
69749;BME280;57019;52.354;6.584;2022-09-17T12:24:02;101235.19;;;21.66;44.38
69749;BME280;57019;52.354;6.584;2022-09-17T12:32:19;101225.34;;;21.54;44.04
69749;BME280;57019;52.354;6.584;2022-09-17T12:35:13;101214.81;;;21.54;44.30
69749;BME280;57019;52.354;6.584;2022-09-17T12:40:44;101222.50;;;21.70;44.64
69749;BME280;57019;52.354;6.584;2022-09-17T12:49:08;101222.06;;;21.51;44.23
69749;BME280;57019;52.354;6.584;2022-09-17T12:51:53;101253.69;;;21.58;44.65
69749;BME280;57019;52.354;6.584;2022-09-17T12:57:45;101248.78;;;21.55;44.72
69749;BME280;57019;52.354;6.584;2022-09-17T13:00:15;101251.97;;;21.65;44.56
69749;BME280;57019;52.354;6.584;2022-09-17T13:02:50;101254.78;;;21.64;44.86
69749;BME280;57019;52.354;6.584;2022-09-17T13:05:52;101248.53;;;21.65;44.49
69749;BME280;57019;52.354;6.584;2022-09-17T13:17:45;101236.66;;;21.69;44.81
69749;BME280;57019;52.354;6.584;2022-09-17T13:20:42;101218.91;;;21.71;44.95
69749;BME280;57019;52.354;6.584;2022-09-17T13:23:11;101225.13;;;21.70;44.79
69749;BME280;57019;52.354;6.584;2022-09-17T13:25:50;101240.72;;;21.72;45.09
69749;BME280;57019;52.354;6.584;2022-09-17T13:28:19;101242.81;;;21.76;44.71
69749;BME280;57019;52.354;6.584;2022-09-17T13:36:43;101230.31;;;21.78;44.60
69749;BME280;57019;52.354;6.584;2022-09-17T13:39:31;101224.66;;;21.81;44.66
69749;BME280;57019;52.354;6.584;2022-09-17T13:42:04;101232.56;;;21.81;44.76
69749;BME280;57019;52.354;6.584;2022-09-17T13:44:38;101226.13;;;21.84;44.90
69749;BME280;57019;52.354;6.584;2022-09-17T13:47:15;101219.59;;;21.80;44.93
69749;BME280;57019;52.354;6.584;2022-09-17T13:49:48;101216.97;;;21.80;44.80
69749;BME280;57019;52.354;6.584;2022-09-17T13:52:29;101214.81;;;21.83;44.86
69749;BME280;57019;52.354;6.584;2022-09-17T13:54:55;101213.63;;;21.86;44.92
69749;BME280;57019;52.354;6.584;2022-09-17T13:57:21;101210.81;;;21.88;44.91
69749;BME280;57019;52.354;6.584;2022-09-17T13:59:58;101209.81;;;21.89;44.74
69749;BME280;57019;52.354;6.584;2022-09-17T14:04:53;101197.78;;;21.79;45.00
69749;BME280;57019;52.354;6.584;2022-09-17T14:12:52;101200.94;;;21.75;45.25
69749;BME280;57019;52.354;6.584;2022-09-17T14:17:59;101263.19;;;21.74;45.53
69749;BME280;57019;52.354;6.584;2022-09-17T14:20:25;101263.94;;;21.68;45.63
69749;BME280;57019;52.354;6.584;2022-09-17T14:23:00;101264.38;;;21.72;45.66
69749;BME280;57019;52.354;6.584;2022-09-17T14:28:21;101271.66;;;21.69;45.74
69749;BME280;57019;52.354;6.584;2022-09-17T14:30:52;101254.84;;;21.71;45.63
69749;BME280;57019;52.354;6.584;2022-09-17T14:33:22;101256.88;;;21.68;46.09
69749;BME280;57019;52.354;6.584;2022-09-17T14:35:54;101259.13;;;21.72;45.59
69749;BME280;57019;52.354;6.584;2022-09-17T14:38:29;101263.28;;;21.81;45.75
69749;BME280;57019;52.354;6.584;2022-09-17T14:41:05;101265.03;;;21.74;45.35
69749;BME280;57019;52.354;6.584;2022-09-17T14:43:51;101268.19;;;21.69;45.57
69749;BME280;57019;52.354;6.584;2022-09-17T14:46:29;101266.28;;;21.63;45.73
69749;BME280;57019;52.354;6.584;2022-09-17T14:51:43;101268.03;;;21.56;46.05
69749;BME280;57019;52.354;6.584;2022-09-17T14:54:27;101259.66;;;21.52;45.67
69749;BME280;57019;52.354;6.584;2022-09-17T14:56:54;101262.47;;;21.50;45.75
69749;BME280;57019;52.354;6.584;2022-09-17T14:59:35;101269.69;;;21.48;45.74
69749;BME280;57019;52.354;6.584;2022-09-17T15:02:02;101268.06;;;21.47;45.94
69749;BME280;57019;52.354;6.584;2022-09-17T15:04:28;101272.69;;;21.45;45.74
69749;BME280;57019;52.354;6.584;2022-09-17T15:07:11;101263.81;;;21.46;46.01
69749;BME280;57019;52.354;6.584;2022-09-17T15:09:36;101257.28;;;21.42;46.20
69749;BME280;57019;52.354;6.584;2022-09-17T15:12:02;101264.34;;;21.42;45.87
69749;BME280;57019;52.354;6.584;2022-09-17T15:14:31;101262.53;;;21.42;45.92
69749;BME280;57019;52.354;6.584;2022-09-17T15:16:59;101263.72;;;21.40;45.93
69749;BME280;57019;52.354;6.584;2022-09-17T15:19:30;101265.53;;;21.39;45.50
69749;BME280;57019;52.354;6.584;2022-09-17T15:21:58;101277.31;;;21.43;45.68
69749;BME280;57019;52.354;6.584;2022-09-17T15:29:50;101281.28;;;21.39;46.08
69749;BME280;57019;52.354;6.584;2022-09-17T15:32:18;101280.94;;;21.42;45.82
69749;BME280;57019;52.354;6.584;2022-09-17T15:34:43;101278.66;;;21.39;45.80
69749;BME280;57019;52.354;6.584;2022-09-17T15:37:20;101278.00;;;21.37;46.02
69749;BME280;57019;52.354;6.584;2022-09-17T15:39:51;101270.78;;;21.39;45.68
69749;BME280;57019;52.354;6.584;2022-09-17T15:42:29;101303.28;;;21.38;45.92
69749;BME280;57019;52.354;6.584;2022-09-17T15:45:17;101301.38;;;21.32;46.00
69749;BME280;57019;52.354;6.584;2022-09-17T15:47:51;101301.56;;;21.30;46.04
69749;BME280;57019;52.354;6.584;2022-09-17T15:50:25;101288.97;;;21.26;46.45
69749;BME280;57019;52.354;6.584;2022-09-17T15:55:40;101296.94;;;21.32;46.50
69749;BME280;57019;52.354;6.584;2022-09-17T15:58:24;101294.50;;;21.31;46.24